createdAt,value
2022-09-21T00:01:20.856Z,8.00
2022-09-21T00:03:48.406Z,8.00
2022-09-21T00:06:19.570Z,8.00
2022-09-21T00:08:47.354Z,8.00
2022-09-21T00:11:24.962Z,7.80
2022-09-21T00:13:55.288Z,7.80
2022-09-21T00:16:22.867Z,7.80
2022-09-21T00:18:50.066Z,7.80
2022-09-21T00:21:18.045Z,7.80
2022-09-21T00:23:45.985Z,7.80
2022-09-21T00:26:17.629Z,7.80
2022-09-21T00:28:45.038Z,7.70
2022-09-21T00:31:15.026Z,7.70
2022-09-21T00:33:43.706Z,7.60
2022-09-21T00:36:17.258Z,7.60
2022-09-21T00:38:46.115Z,7.50
2022-09-21T00:41:13.791Z,7.50
2022-09-21T00:43:46.260Z,7.40
2022-09-21T00:46:24.035Z,7.40
2022-09-21T00:48:51.213Z,7.30
2022-09-21T00:51:18.534Z,7.40
2022-09-21T00:53:47.629Z,7.30
2022-09-21T00:56:15.712Z,7.30
2022-09-21T00:58:48.331Z,7.20
2022-09-21T01:01:18.799Z,7.10
2022-09-21T01:03:51.696Z,7.20
2022-09-21T01:06:21.211Z,7.10
2022-09-21T01:08:55.265Z,7.10
2022-09-21T01:11:32.937Z,7.20
2022-09-21T01:14:39.233Z,7.10
2022-09-21T01:17:12.465Z,7.00
2022-09-21T01:20:09.189Z,7.00
2022-09-21T01:22:51.483Z,7.00
2022-09-21T01:25:49.192Z,7.00
2022-09-21T01:28:34.214Z,7.00
2022-09-21T01:31:07.663Z,7.00
2022-09-21T01:33:46.374Z,7.00
2022-09-21T01:36:18.257Z,7.00
2022-09-21T01:38:52.562Z,7.00
2022-09-21T01:41:26.114Z,7.00
2022-09-21T01:43:58.161Z,7.00
2022-09-21T01:46:30.783Z,7.00
2022-09-21T01:49:04.970Z,6.90
2022-09-21T01:51:35.115Z,6.80
2022-09-21T01:54:12.893Z,6.70
2022-09-21T01:56:47.034Z,6.80
2022-09-21T01:59:21.887Z,6.80
2022-09-21T02:01:57.993Z,6.80
2022-09-21T02:04:25.506Z,6.80
2022-09-21T02:06:53.144Z,6.70
2022-09-21T02:09:20.500Z,6.70
2022-09-21T02:11:47.812Z,6.80
2022-09-21T02:14:22.543Z,6.70
2022-09-21T02:17:15.142Z,6.70
2022-09-21T02:20:18.653Z,6.70
2022-09-21T02:23:06.642Z,6.70
2022-09-21T02:25:44.045Z,6.70
2022-09-21T02:28:26.494Z,6.70
2022-09-21T02:31:00.541Z,6.70
2022-09-21T02:33:35.326Z,6.70
2022-09-21T02:36:08.458Z,6.70
2022-09-21T02:38:47.684Z,6.70
2022-09-21T02:41:24.367Z,6.70
2022-09-21T02:44:03.129Z,6.70
2022-09-21T02:46:40.562Z,6.60
2022-09-21T02:49:17.726Z,6.60
2022-09-21T02:51:47.915Z,6.60
2022-09-21T02:54:18.572Z,6.60
2022-09-21T02:56:49.018Z,6.40
2022-09-21T02:59:19.489Z,6.50
2022-09-21T03:01:47.542Z,6.50
2022-09-21T03:04:14.707Z,6.50
2022-09-21T03:06:42.020Z,6.50
2022-09-21T03:09:10.377Z,6.40
2022-09-21T03:11:38.001Z,6.30
2022-09-21T03:14:09.011Z,6.30
2022-09-21T03:16:36.476Z,6.30
2022-09-21T03:19:03.901Z,6.30
2022-09-21T03:21:31.226Z,6.20
2022-09-21T03:23:58.207Z,6.20
2022-09-21T03:26:25.543Z,6.30
2022-09-21T03:28:54.810Z,6.20
2022-09-21T03:31:22.589Z,6.20
2022-09-21T03:33:49.775Z,6.10
2022-09-21T03:36:17.127Z,6.10
2022-09-21T03:38:44.600Z,6.10
2022-09-21T03:41:11.544Z,6.00
2022-09-21T03:43:38.501Z,6.00
2022-09-21T03:46:06.063Z,6.00
2022-09-21T03:48:33.817Z,5.90
2022-09-21T03:51:01.135Z,5.90
2022-09-21T03:53:28.815Z,5.90
2022-09-21T03:55:57.365Z,5.80
2022-09-21T03:58:24.441Z,5.70
2022-09-21T04:00:51.603Z,5.80
2022-09-21T04:03:18.526Z,5.70
2022-09-21T04:05:45.468Z,5.80
2022-09-21T04:08:12.618Z,5.70
2022-09-21T04:10:42.767Z,5.80
2022-09-21T04:13:09.785Z,5.70
2022-09-21T04:15:36.881Z,5.70
2022-09-21T04:18:05.456Z,5.70
2022-09-21T04:20:32.648Z,5.70
2022-09-21T04:23:00.011Z,5.60
2022-09-21T04:25:28.410Z,5.60
2022-09-21T04:27:55.683Z,5.40
2022-09-21T04:30:22.750Z,5.40
2022-09-21T04:32:50.188Z,5.40
2022-09-21T04:35:17.330Z,5.40
2022-09-21T04:37:44.291Z,5.40
2022-09-21T04:40:11.368Z,5.40
2022-09-21T04:42:38.420Z,5.30
2022-09-21T04:45:05.694Z,5.30
2022-09-21T04:47:32.602Z,5.30
2022-09-21T04:49:59.597Z,5.30
2022-09-21T04:52:37.438Z,5.30
2022-09-21T04:55:07.930Z,5.20
2022-09-21T04:57:35.851Z,5.30
2022-09-21T05:00:05.572Z,5.30
2022-09-21T05:02:32.978Z,5.30
2022-09-21T05:05:00.081Z,5.30
2022-09-21T05:07:27.367Z,5.30
2022-09-21T05:10:03.436Z,5.30
2022-09-21T05:12:31.839Z,5.30
2022-09-21T05:14:59.172Z,5.20
2022-09-21T05:17:26.171Z,5.20
2022-09-21T05:19:55.283Z,5.20
2022-09-21T05:22:22.885Z,5.20
2022-09-21T05:24:49.851Z,5.20
2022-09-21T05:27:16.899Z,5.20
2022-09-21T05:29:44.174Z,5.20
2022-09-21T05:32:36.284Z,5.20
2022-09-21T05:35:21.727Z,5.10
2022-09-21T05:37:59.757Z,5.30
2022-09-21T05:40:27.397Z,5.30
2022-09-21T05:42:54.756Z,5.30
2022-09-21T05:45:23.303Z,5.40
2022-09-21T05:47:59.514Z,5.50
2022-09-21T05:50:47.519Z,5.50
2022-09-21T05:53:29.809Z,5.60
2022-09-21T05:55:57.988Z,5.70
2022-09-21T05:58:37.802Z,5.70
2022-09-21T06:01:18.351Z,5.80
2022-09-21T06:03:47.680Z,5.90
2022-09-21T06:06:14.861Z,5.90
2022-09-21T06:08:41.894Z,6.00
2022-09-21T06:11:09.548Z,6.10
2022-09-21T06:13:37.538Z,6.10
2022-09-21T06:16:05.342Z,6.30
2022-09-21T06:18:32.308Z,6.40
2022-09-21T06:20:59.330Z,6.50
2022-09-21T06:23:26.359Z,6.60
2022-09-21T06:25:58.213Z,6.70
2022-09-21T06:28:25.926Z,6.70
2022-09-21T06:30:54.892Z,6.80
2022-09-21T06:33:23.723Z,6.90
2022-09-21T06:35:54.536Z,7.00
2022-09-21T06:38:22.996Z,7.20
2022-09-21T06:40:50.590Z,7.30
2022-09-21T06:43:18.418Z,7.40
2022-09-21T06:45:56.770Z,7.40
2022-09-21T06:48:24.276Z,7.50
2022-09-21T06:50:51.855Z,7.60
2022-09-21T06:53:18.920Z,7.80
2022-09-21T06:55:45.832Z,7.90
2022-09-21T06:58:12.867Z,7.90
2022-09-21T07:00:39.811Z,7.90
2022-09-21T07:03:06.889Z,8.00
2022-09-21T07:05:34.504Z,8.20
2022-09-21T07:08:02.240Z,8.30
2022-09-21T07:10:29.230Z,8.60
2022-09-21T07:12:56.493Z,8.60
2022-09-21T07:15:23.749Z,8.60
2022-09-21T07:17:52.339Z,8.60
2022-09-21T07:20:19.545Z,8.90
2022-09-21T07:22:46.532Z,9.10
2022-09-21T07:25:15.006Z,9.20
2022-09-21T07:27:42.307Z,9.30
2022-09-21T07:30:09.916Z,9.70
2022-09-21T07:32:36.899Z,10.00
2022-09-21T07:35:04.184Z,10.00
2022-09-21T07:37:32.050Z,10.20
2022-09-21T07:39:59.227Z,10.10
2022-09-21T07:42:27.975Z,10.50
2022-09-21T07:45:04.009Z,10.80
2022-09-21T07:47:31.582Z,10.90
2022-09-21T07:49:58.697Z,11.50
2022-09-21T07:52:25.653Z,11.70
2022-09-21T07:54:52.588Z,11.50
2022-09-21T07:57:38.012Z,11.80
2022-09-21T08:00:05.926Z,11.90
2022-09-21T08:02:39.561Z,12.20
2022-09-21T08:05:08.476Z,12.80
2022-09-21T08:07:36.008Z,13.10
2022-09-21T08:10:03.056Z,13.30
2022-09-21T08:12:29.950Z,14.10
2022-09-21T08:14:56.980Z,15.10
2022-09-21T08:17:24.752Z,17.90
2022-09-21T08:19:51.673Z,21.70
2022-09-21T08:22:18.966Z,24.50
2022-09-21T08:24:46.131Z,26.70
2022-09-21T08:27:13.097Z,28.00
2022-09-21T08:29:40.019Z,28.60
2022-09-21T08:32:07.400Z,29.70
2022-09-21T08:34:34.437Z,29.90
2022-09-21T08:37:01.317Z,29.80
2022-09-21T08:39:28.294Z,30.60
2022-09-21T08:42:14.595Z,31.00
2022-09-21T08:44:59.613Z,31.10
2022-09-21T08:47:46.984Z,30.70
2022-09-21T08:50:35.376Z,31.00
2022-09-21T08:53:12.308Z,31.30
2022-09-21T08:55:51.158Z,29.50
2022-09-21T08:58:29.078Z,26.80
2022-09-21T09:01:19.375Z,24.60
2022-09-21T09:04:16.398Z,23.00
2022-09-21T09:07:15.612Z,22.10
2022-09-21T09:10:06.891Z,21.40
2022-09-21T09:13:01.602Z,21.00
2022-09-21T09:15:51.816Z,20.50
2022-09-21T09:18:41.398Z,20.50
2022-09-21T09:21:32.419Z,20.80
2022-09-21T09:24:21.574Z,20.60
2022-09-21T09:27:07.130Z,20.10
2022-09-21T09:30:05.082Z,19.60
2022-09-21T09:32:53.776Z,19.50
2022-09-21T09:36:05.661Z,19.50
2022-09-21T09:38:37.677Z,19.50
2022-09-21T09:41:22.590Z,19.70
2022-09-21T09:44:22.104Z,19.80
2022-09-21T09:47:22.865Z,19.80
2022-09-21T09:53:06.038Z,19.70
2022-09-21T09:55:44.813Z,19.60
2022-09-21T09:58:51.029Z,19.30
2022-09-21T10:01:42.877Z,19.50
2022-09-21T10:04:24.438Z,19.60
2022-09-21T10:06:57.287Z,19.80
2022-09-21T10:09:34.984Z,19.90
2022-09-21T10:12:30.076Z,20.30
2022-09-21T10:15:03.759Z,20.20
2022-09-21T10:17:37.129Z,20.00
2022-09-21T10:20:21.090Z,20.00
2022-09-21T10:22:55.497Z,19.50
2022-09-21T10:25:25.622Z,19.40
2022-09-21T10:28:17.379Z,19.30
2022-09-21T10:30:45.111Z,19.30
2022-09-21T10:33:31.715Z,19.30
2022-09-21T10:35:59.217Z,19.00
2022-09-21T10:38:33.324Z,19.00
2022-09-21T10:41:03.648Z,18.80
2022-09-21T10:43:45.502Z,18.80
2022-09-21T10:46:12.831Z,18.70
2022-09-21T10:48:40.561Z,18.50
2022-09-21T10:51:26.973Z,18.80
2022-09-21T10:53:58.854Z,19.00
2022-09-21T10:56:31.620Z,19.20
2022-09-21T10:59:29.263Z,19.30
2022-09-21T11:02:11.334Z,19.20
2022-09-21T11:04:54.396Z,19.10
2022-09-21T11:07:32.594Z,19.00
2022-09-21T11:10:21.442Z,19.10
2022-09-21T11:13:12.947Z,19.20
2022-09-21T11:16:05.606Z,18.90
2022-09-21T11:18:45.534Z,18.70
2022-09-21T11:21:42.108Z,18.60
2022-09-21T11:24:45.068Z,18.30
2022-09-21T11:27:22.917Z,18.10
2022-09-21T11:30:09.856Z,18.00
2022-09-21T11:32:59.495Z,17.90
2022-09-21T11:35:53.624Z,18.00
2022-09-21T11:38:52.126Z,17.80
2022-09-21T11:41:47.370Z,17.60
2022-09-21T11:44:51.486Z,17.70
2022-09-21T11:47:24.064Z,17.60
2022-09-21T11:50:36.631Z,17.70
2022-09-21T11:53:20.801Z,17.80
2022-09-21T11:55:52.255Z,17.80
2022-09-21T11:58:44.272Z,17.60
2022-09-21T12:01:41.574Z,17.50
2022-09-21T12:04:35.577Z,17.60
2022-09-21T12:07:40.336Z,17.60
2022-09-21T12:10:15.425Z,17.50
2022-09-21T12:13:01.312Z,17.40
2022-09-21T12:15:38.454Z,17.50
2022-09-21T12:18:16.478Z,17.50
2022-09-21T12:21:30.391Z,17.60
2022-09-21T12:24:05.734Z,17.60
2022-09-21T12:27:06.687Z,17.60
2022-09-21T12:29:54.244Z,17.60
2022-09-21T12:33:07.684Z,17.70
2022-09-21T12:35:50.079Z,17.80
2022-09-21T12:41:32.334Z,17.90
2022-09-21T12:44:13.172Z,17.90
2022-09-21T12:47:12.734Z,17.90
2022-09-21T12:49:53.891Z,17.90
2022-09-21T12:52:32.552Z,18.00
2022-09-21T12:55:25.280Z,17.90
2022-09-21T12:58:25.163Z,17.90
2022-09-21T13:01:20.873Z,17.70
2022-09-21T13:04:07.123Z,17.80
2022-09-21T13:07:08.523Z,17.70
2022-09-21T13:09:43.154Z,17.80
2022-09-21T13:12:37.629Z,18.00
2022-09-21T13:15:30.473Z,18.00
2022-09-21T13:18:21.573Z,17.90
2022-09-21T13:20:55.937Z,17.90
2022-09-21T13:23:59.840Z,17.80
2022-09-21T13:26:57.326Z,17.80
2022-09-21T13:29:30.893Z,17.80
2022-09-21T13:32:43.418Z,17.90
2022-09-21T13:35:53.340Z,17.80
2022-09-21T13:38:37.587Z,17.80
2022-09-21T13:41:31.518Z,17.80
2022-09-21T13:44:48.731Z,17.80
2022-09-21T13:47:39.532Z,17.80
2022-09-21T13:50:29.511Z,17.80
2022-09-21T13:53:02.582Z,17.90
2022-09-21T13:55:55.466Z,18.00
2022-09-21T13:58:32.436Z,18.00
2022-09-21T14:01:35.353Z,18.10
2022-09-21T14:04:12.418Z,18.10
2022-09-21T14:06:47.705Z,18.10
2022-09-21T14:09:31.681Z,18.10
2022-09-21T14:12:06.981Z,18.30
2022-09-21T14:14:41.722Z,18.30
2022-09-21T14:17:50.193Z,18.00
2022-09-21T14:20:38.647Z,17.90
2022-09-21T14:23:29.909Z,17.90
2022-09-21T14:25:59.255Z,17.80
2022-09-21T14:28:44.480Z,17.80
2022-09-21T14:31:22.826Z,17.70
2022-09-21T14:33:56.001Z,17.60
2022-09-21T14:36:31.411Z,17.40
2022-09-21T14:39:09.723Z,17.40
2022-09-21T14:41:46.550Z,17.30
2022-09-21T14:44:40.255Z,17.10
2022-09-21T14:47:28.950Z,17.10
2022-09-21T14:50:25.948Z,17.00
2022-09-21T14:53:30.429Z,16.80
2022-09-21T14:56:26.067Z,16.60
2022-09-21T14:59:08.657Z,16.60
2022-09-21T15:02:00.554Z,16.60
2022-09-21T15:04:54.636Z,16.30
2022-09-21T15:07:50.567Z,16.10
2022-09-21T15:10:55.192Z,16.20
2022-09-21T15:13:25.361Z,16.20
2022-09-21T15:16:09.128Z,16.00
2022-09-21T15:18:42.594Z,15.90
2022-09-21T15:21:24.335Z,15.80
2022-09-21T15:23:53.044Z,15.90
2022-09-21T15:26:30.646Z,15.80
2022-09-21T15:29:15.691Z,15.80
2022-09-21T15:31:43.025Z,15.80
2022-09-21T15:34:13.051Z,15.90
2022-09-21T15:36:42.238Z,15.80
2022-09-21T15:39:30.763Z,15.70
2022-09-21T15:42:20.006Z,15.70
2022-09-21T15:44:49.150Z,15.70
2022-09-21T15:47:20.214Z,15.60
2022-09-21T15:49:48.093Z,15.50
2022-09-21T15:52:28.070Z,15.50
2022-09-21T15:55:00.569Z,15.40
2022-09-21T15:57:41.440Z,15.40
2022-09-21T16:00:15.440Z,15.40
2022-09-21T16:02:51.567Z,15.30
2022-09-21T16:05:22.892Z,15.30
2022-09-21T16:07:50.018Z,15.30
2022-09-21T16:10:39.245Z,15.30
2022-09-21T16:13:44.306Z,15.10
2022-09-21T16:16:15.111Z,15.10
2022-09-21T16:18:51.105Z,15.00
2022-09-21T16:21:37.767Z,15.10
2022-09-21T16:24:13.710Z,15.00
2022-09-21T16:26:41.903Z,14.80
2022-09-21T16:29:09.178Z,14.70
2022-09-21T16:31:37.340Z,14.60
2022-09-21T16:34:18.605Z,14.60
2022-09-21T16:36:47.283Z,14.60
2022-09-21T16:39:17.338Z,14.60
2022-09-21T16:41:58.348Z,14.50
2022-09-21T16:44:34.357Z,14.50
2022-09-21T16:47:03.104Z,14.40
2022-09-21T16:49:33.673Z,14.30
2022-09-21T16:52:01.414Z,14.10
2022-09-21T16:54:29.072Z,14.00
2022-09-21T16:56:58.558Z,14.00
2022-09-21T16:59:26.865Z,14.00
2022-09-21T17:01:56.927Z,14.00
2022-09-21T17:04:30.222Z,13.90
2022-09-21T17:06:58.399Z,13.80
2022-09-21T17:09:29.805Z,13.70
2022-09-21T17:12:00.239Z,13.60
2022-09-21T17:14:41.804Z,13.60
2022-09-21T17:17:25.326Z,13.40
2022-09-21T17:19:54.238Z,13.40
2022-09-21T17:22:21.972Z,13.20
2022-09-21T17:24:52.508Z,13.00
2022-09-21T17:27:22.723Z,13.00
2022-09-21T17:29:50.427Z,12.90
2022-09-21T17:32:24.063Z,12.90
2022-09-21T17:35:09.997Z,12.80
2022-09-21T17:37:41.046Z,12.80
2022-09-21T17:40:11.159Z,12.70
2022-09-21T17:42:44.344Z,12.70
2022-09-21T17:45:26.729Z,12.60
2022-09-21T17:47:54.021Z,12.50
2022-09-21T17:50:25.941Z,12.10
2022-09-21T17:53:12.743Z,12.10
2022-09-21T17:55:46.063Z,12.00
2022-09-21T17:58:19.132Z,11.70
2022-09-21T18:00:58.476Z,11.80
2022-09-21T18:03:28.281Z,11.70
2022-09-21T18:06:00.764Z,11.60
2022-09-21T18:08:29.781Z,11.60
2022-09-21T18:11:24.892Z,11.40
2022-09-21T18:14:09.070Z,11.50
2022-09-21T18:17:07.573Z,11.40
2022-09-21T18:19:52.695Z,11.40
2022-09-21T18:22:52.868Z,11.30
2022-09-21T18:25:35.405Z,11.20
2022-09-21T18:28:23.755Z,11.20
2022-09-21T18:31:12.816Z,11.20
2022-09-21T18:33:45.134Z,11.00
2022-09-21T18:36:25.358Z,10.90
2022-09-21T18:39:35.007Z,10.70
2022-09-21T18:42:14.455Z,10.70
2022-09-21T18:44:53.346Z,10.70
2022-09-21T18:47:56.065Z,10.50
2022-09-21T18:50:33.706Z,10.40
2022-09-21T18:53:12.432Z,10.30
2022-09-21T18:55:39.585Z,10.30
2022-09-21T18:58:07.165Z,10.20
2022-09-21T19:00:35.774Z,10.30
2022-09-21T19:03:17.518Z,10.30
2022-09-21T19:05:58.284Z,10.30
2022-09-21T19:08:39.239Z,10.20
2022-09-21T19:11:38.812Z,10.20
2022-09-21T19:14:14.643Z,10.10
2022-09-21T19:17:01.709Z,10.10
2022-09-21T19:19:36.618Z,10.10
2022-09-21T19:22:27.008Z,10.00
2022-09-21T19:25:04.877Z,9.90
2022-09-21T19:27:40.177Z,9.70
2022-09-21T19:30:12.059Z,9.60
2022-09-21T19:32:47.330Z,9.60
2022-09-21T19:35:30.176Z,9.60
2022-09-21T19:38:00.403Z,9.60
2022-09-21T19:40:32.229Z,9.40
2022-09-21T19:43:12.306Z,9.40
2022-09-21T19:45:45.357Z,9.40
2022-09-21T19:48:16.249Z,9.40
2022-09-21T19:50:53.492Z,9.30
2022-09-21T19:53:43.234Z,9.30
2022-09-21T19:56:34.161Z,9.10
2022-09-21T19:59:20.125Z,9.10
2022-09-21T20:01:56.390Z,9.20
2022-09-21T20:04:39.299Z,9.20
2022-09-21T20:07:34.896Z,9.20
2022-09-21T20:10:23.330Z,9.10
2022-09-21T20:13:12.734Z,9.10
2022-09-21T20:16:31.420Z,9.00
2022-09-21T20:19:34.726Z,9.00
2022-09-21T20:22:15.512Z,8.90
2022-09-21T20:24:58.287Z,8.90
2022-09-21T20:27:35.217Z,8.80
2022-09-21T20:30:04.422Z,8.70
2022-09-21T20:32:32.422Z,8.80
2022-09-21T20:34:59.885Z,8.70
2022-09-21T20:37:27.438Z,8.70
2022-09-21T20:39:54.972Z,8.50
2022-09-21T20:42:24.366Z,8.50
2022-09-21T20:44:52.143Z,8.50
2022-09-21T20:47:20.524Z,8.40
2022-09-21T20:49:48.406Z,8.40
2022-09-21T20:52:18.514Z,8.50
2022-09-21T20:54:49.265Z,8.40
2022-09-21T20:57:18.253Z,8.40
2022-09-21T20:59:45.205Z,8.20
2022-09-21T21:02:13.352Z,8.30
2022-09-21T21:04:40.929Z,8.30
2022-09-21T21:07:09.100Z,8.10
2022-09-21T21:09:36.197Z,8.20
2022-09-21T21:12:03.158Z,8.30
2022-09-21T21:14:30.400Z,8.30
2022-09-21T21:16:57.409Z,8.20
2022-09-21T21:19:24.849Z,8.10
2022-09-21T21:21:51.798Z,8.10
2022-09-21T21:24:37.698Z,8.00
2022-09-21T21:27:04.933Z,8.00
2022-09-21T21:29:32.697Z,8.00
2022-09-21T21:32:00.262Z,7.90
2022-09-21T21:34:27.301Z,8.00
2022-09-21T21:36:54.358Z,7.90
2022-09-21T21:39:21.488Z,7.90
2022-09-21T21:41:48.685Z,7.80
2022-09-21T21:44:15.934Z,7.60
2022-09-21T21:46:43.529Z,7.60
2022-09-21T21:49:10.666Z,7.60
2022-09-21T21:51:37.605Z,7.50
2022-09-21T21:54:04.652Z,7.50
2022-09-21T21:56:32.220Z,7.50
2022-09-21T21:58:59.746Z,7.50
2022-09-21T22:01:29.430Z,7.50
2022-09-21T22:04:01.850Z,7.50
2022-09-21T22:06:31.451Z,7.50
2022-09-21T22:08:59.347Z,7.50
2022-09-21T22:11:27.966Z,7.40
2022-09-21T22:13:55.720Z,7.30
2022-09-21T22:16:24.956Z,7.30
2022-09-21T22:18:52.969Z,7.30
2022-09-21T22:21:31.428Z,7.30
2022-09-21T22:24:01.424Z,7.20
2022-09-21T22:26:31.011Z,7.20
2022-09-21T22:29:02.056Z,7.20
2022-09-21T22:31:32.553Z,7.10
2022-09-21T22:34:00.226Z,7.10
2022-09-21T22:36:33.702Z,7.10
2022-09-21T22:39:01.234Z,7.00
2022-09-21T22:41:31.396Z,7.10
2022-09-21T22:43:59.427Z,7.10
2022-09-21T22:46:27.963Z,7.10
2022-09-21T22:48:56.177Z,7.00
2022-09-21T22:51:23.552Z,7.00
2022-09-21T22:53:51.496Z,6.90
2022-09-21T22:56:21.446Z,6.90
2022-09-21T22:58:50.724Z,6.80
2022-09-21T23:01:25.700Z,6.80
2022-09-21T23:04:01.604Z,6.80
2022-09-21T23:06:32.974Z,6.80
2022-09-21T23:09:02.199Z,6.70
2022-09-21T23:11:36.039Z,6.80
2022-09-21T23:14:04.330Z,6.70
2022-09-21T23:16:32.233Z,6.70
2022-09-21T23:19:00.332Z,6.70
2022-09-21T23:21:29.957Z,6.60
2022-09-21T23:24:00.127Z,6.70
2022-09-21T23:26:29.606Z,6.60
2022-09-21T23:28:59.327Z,6.60
2022-09-21T23:31:27.657Z,6.70
2022-09-21T23:33:57.495Z,6.70
2022-09-21T23:36:30.509Z,6.60
2022-09-21T23:38:58.636Z,6.60
2022-09-21T23:41:28.370Z,6.70
2022-09-21T23:43:56.755Z,6.60
2022-09-21T23:46:26.211Z,6.60
2022-09-21T23:48:53.820Z,6.50
2022-09-21T23:51:21.364Z,6.50
2022-09-21T23:53:48.524Z,6.50
2022-09-21T23:56:18.070Z,6.40
2022-09-21T23:58:45.531Z,6.50
